Pagina principale
METAR-TAF:

METAR-TAF

Aeroporti :

Aeroporto di Ginevra-Cointrin

Ginevra, Svizzera

latitudine: 46-15N, longitudine: 006-08E, altezza: 420 m

Osservazione

Il bollettino è stato emesso 39 minuti fa, alle 19:50 UTC
Vento 2 kt da direzioni variabili
Temperature 20°C
Umidità 73%
Pressione 1019 hPa
Visibilità 10 km o più
nessuna nube inferiore a 1500 m e nessun cumulonembo

METAR: LSGG 161950Z VRB02KT CAVOK 20/15 Q1019 NOSIG

Ora: 22:29 (20:29 UTC)

Previsione

Il bollettino è stato emesso 3 ore e 4 minuti fa, alle 17:25 UTC
Previsione valida dal 16 alle 18 UTC al 17 alle 24 UTC
Vento 3 kt da direzioni variabili
Visibilità 10 km o più
nessuna nube inferiore a 1500 m e nessun cumulonembo
Evoluzione graduale
dal 17 alle 12 UTC al 17 alle 14 UTC
Vento 10 kt da est/nord-est
Visibilità 10 km o più
Poco nuvoloso ad un'altezza di 5000 ft

TAF: LSGG 161725Z 1618/1724 VRB03KT CAVOK TX28/1715Z TN14/1705Z BECMG 1712/1714 06010KT 9999 FEW050

Osservazioni e previsioni meteorologiche di più di 4000 aeroporti (messaggi METAR e TAF).

Le stazioni disponibili sono rappresentate dai dischi gialli e rossi sulla carta.

Puntare il mouse per vedere il nome della stazione.

Clicca sopra per visualizzare le osservazioni e previsioni meteorologiche.

Per cambiare la mappa : fare clic sui pulsanti verdi con una croce nera per ingrandire, il pulsante verde con un trattino per diminuire, o sulla freccia verde per le mappe adiacenti.


METAR-TAF: